עמוד ראשי
METAR-TAF:

METAR-TAF

שדות תעופה :

Lamerd, איראן

קו רוחב: 27-22-22N, קו אורך: 53-11-20E, גובה: 408מטר

תצפית מזג אוויר נוכחית

הדו"ח נערך לפני 4 שעות ו 31דקות, בשעה 15:00 UTC
רוח 12קשר מכיוון מערב
טמפרטורת 38 צלסיוס
לחות 24%
לחץ 1001 hPa
ראות 10 קילומטר או יותר
ללא עננים שבסיסם נמוך מ 5000 רגל או קומולונימבוס

METAR: OISR 131500Z 26012KT CAVOK 38/14 Q1000 A2956 NOSIG

זמן: 00:01 (19:31 UTC)


TAF: חסר

תצפיות ותחזיות מזג אוויר לגבי יותר מ- 4,000 שדות תעופה ברחבי העולם. דוחות METAR ו- TAF.

התחנות הזמינות מסומנות בנקודות צהובות ואדומות על גבי המפה.

העבר את העכבר לנקודה הצבעונית על מנת לראות את שם התחנה.

לאחר מכן, לחץ כדי לראות את תוכן ואת תחזיות מזג האוויר.

כדי לשנות את המפה: לחץ על הכפתורים הירוקים עם הפלוס השחור כדי להתקרב; על הכפתור הירוק עם המקף כדי להתרחק; או בחיצים הירוקים למפות סמוכות.


METAR-TAF: